sensor_id;sensor_type;location;lat;lon;timestamp;P1;durP1;ratioP1;P2;durP2;ratioP2
76667;SDS011;65585;51.166;16.922;2023-03-31T00:01:08;7.28;;;2.88;;
76667;SDS011;65585;51.166;16.922;2023-03-31T00:03:34;8.30;;;2.97;;
76667;SDS011;65585;51.166;16.922;2023-03-31T00:06:03;3.83;;;2.60;;
76667;SDS011;65585;51.166;16.922;2023-03-31T00:08:30;6.68;;;2.65;;
76667;SDS011;65585;51.166;16.922;2023-03-31T00:11:00;4.47;;;2.70;;
76667;SDS011;65585;51.166;16.922;2023-03-31T00:13:30;5.40;;;2.78;;
76667;SDS011;65585;51.166;16.922;2023-03-31T00:15:57;5.25;;;2.67;;
76667;SDS011;65585;51.166;16.922;2023-03-31T00:18:33;6.88;;;3.20;;
76667;SDS011;65585;51.166;16.922;2023-03-31T00:21:06;10.25;;;3.10;;
76667;SDS011;65585;51.166;16.922;2023-03-31T00:23:52;6.38;;;3.00;;
76667;SDS011;65585;51.166;16.922;2023-03-31T00:26:19;6.10;;;2.95;;
76667;SDS011;65585;51.166;16.922;2023-03-31T00:28:49;7.68;;;3.20;;
76667;SDS011;65585;51.166;16.922;2023-03-31T00:31:15;7.35;;;3.85;;
76667;SDS011;65585;51.166;16.922;2023-03-31T00:33:41;6.18;;;3.90;;
76667;SDS011;65585;51.166;16.922;2023-03-31T00:36:08;7.78;;;3.97;;
76667;SDS011;65585;51.166;16.922;2023-03-31T00:38:34;9.23;;;4.10;;
76667;SDS011;65585;51.166;16.922;2023-03-31T00:41:01;4.07;;;2.90;;
76667;SDS011;65585;51.166;16.922;2023-03-31T00:43:32;5.20;;;3.60;;
76667;SDS011;65585;51.166;16.922;2023-03-31T00:46:06;6.10;;;3.55;;
76667;SDS011;65585;51.166;16.922;2023-03-31T00:48:33;6.00;;;3.30;;
76667;SDS011;65585;51.166;16.922;2023-03-31T00:51:01;5.68;;;3.35;;
76667;SDS011;65585;51.166;16.922;2023-03-31T00:53:30;7.70;;;3.72;;
76667;SDS011;65585;51.166;16.922;2023-03-31T00:55:58;7.10;;;4.15;;
76667;SDS011;65585;51.166;16.922;2023-03-31T00:58:34;9.32;;;3.92;;
76667;SDS011;65585;51.166;16.922;2023-03-31T01:01:09;9.13;;;3.95;;
76667;SDS011;65585;51.166;16.922;2023-03-31T01:03:42;7.88;;;3.97;;
76667;SDS011;65585;51.166;16.922;2023-03-31T01:06:12;6.03;;;3.90;;
76667;SDS011;65585;51.166;16.922;2023-03-31T01:08:39;7.75;;;3.90;;
76667;SDS011;65585;51.166;16.922;2023-03-31T01:11:08;6.25;;;4.20;;
76667;SDS011;65585;51.166;16.922;2023-03-31T01:13:35;7.70;;;4.07;;
76667;SDS011;65585;51.166;16.922;2023-03-31T01:16:03;6.80;;;3.65;;
76667;SDS011;65585;51.166;16.922;2023-03-31T01:18:30;7.82;;;4.03;;
76667;SDS011;65585;51.166;16.922;2023-03-31T01:21:09;6.85;;;4.07;;
76667;SDS011;65585;51.166;16.922;2023-03-31T01:32:30;6.75;;;4.55;;
76667;SDS011;65585;51.166;16.922;2023-03-31T01:41:26;8.20;;;3.55;;
76667;SDS011;65585;51.166;16.922;2023-03-31T01:46:34;7.97;;;4.60;;
76667;SDS011;65585;51.166;16.922;2023-03-31T01:49:13;9.52;;;4.00;;
76667;SDS011;65585;51.166;16.922;2023-03-31T01:56:59;7.57;;;4.10;;
76667;SDS011;65585;51.166;16.922;2023-03-31T01:59:35;6.82;;;4.28;;
76667;SDS011;65585;51.166;16.922;2023-03-31T02:02:26;7.63;;;5.20;;
76667;SDS011;65585;51.166;16.922;2023-03-31T02:04:54;8.20;;;5.10;;
76667;SDS011;65585;51.166;16.922;2023-03-31T02:07:28;8.18;;;5.13;;
76667;SDS011;65585;51.166;16.922;2023-03-31T02:09:59;9.10;;;5.03;;
76667;SDS011;65585;51.166;16.922;2023-03-31T02:12:28;8.90;;;4.80;;
76667;SDS011;65585;51.166;16.922;2023-03-31T02:14:57;7.28;;;4.57;;
76667;SDS011;65585;51.166;16.922;2023-03-31T02:17:24;10.75;;;5.82;;
76667;SDS011;65585;51.166;16.922;2023-03-31T02:19:56;11.05;;;4.88;;
76667;SDS011;65585;51.166;16.922;2023-03-31T02:22:24;9.40;;;4.78;;
76667;SDS011;65585;51.166;16.922;2023-03-31T02:24:52;14.98;;;5.47;;
76667;SDS011;65585;51.166;16.922;2023-03-31T02:27:26;9.95;;;5.03;;
76667;SDS011;65585;51.166;16.922;2023-03-31T02:29:55;7.55;;;4.57;;
76667;SDS011;65585;51.166;16.922;2023-03-31T02:32:32;8.05;;;4.25;;
76667;SDS011;65585;51.166;16.922;2023-03-31T02:35:01;6.55;;;4.25;;
76667;SDS011;65585;51.166;16.922;2023-03-31T02:37:28;9.30;;;4.85;;
76667;SDS011;65585;51.166;16.922;2023-03-31T02:39:55;8.88;;;4.63;;
76667;SDS011;65585;51.166;16.922;2023-03-31T02:42:22;9.43;;;4.95;;
76667;SDS011;65585;51.166;16.922;2023-03-31T02:44:48;13.15;;;5.63;;
76667;SDS011;65585;51.166;16.922;2023-03-31T02:47:15;10.25;;;5.07;;
76667;SDS011;65585;51.166;16.922;2023-03-31T02:49:53;9.50;;;5.50;;
76667;SDS011;65585;51.166;16.922;2023-03-31T03:13:48;12.20;;;6.35;;
76667;SDS011;65585;51.166;16.922;2023-03-31T03:16:39;11.35;;;6.35;;
76667;SDS011;65585;51.166;16.922;2023-03-31T03:19:07;13.40;;;7.40;;
76667;SDS011;65585;51.166;16.922;2023-03-31T03:21:34;16.20;;;8.40;;
76667;SDS011;65585;51.166;16.922;2023-03-31T03:24:00;12.73;;;7.15;;
76667;SDS011;65585;51.166;16.922;2023-03-31T03:26:27;16.55;;;7.78;;
76667;SDS011;65585;51.166;16.922;2023-03-31T03:28:56;12.35;;;6.88;;
76667;SDS011;65585;51.166;16.922;2023-03-31T03:31:22;11.73;;;7.13;;
76667;SDS011;65585;51.166;16.922;2023-03-31T03:33:50;14.50;;;6.63;;
76667;SDS011;65585;51.166;16.922;2023-03-31T03:36:16;9.13;;;5.72;;
76667;SDS011;65585;51.166;16.922;2023-03-31T03:38:42;13.07;;;6.43;;
76667;SDS011;65585;51.166;16.922;2023-03-31T03:41:09;10.75;;;6.20;;
76667;SDS011;65585;51.166;16.922;2023-03-31T03:43:35;12.52;;;5.85;;
76667;SDS011;65585;51.166;16.922;2023-03-31T03:46:01;13.07;;;5.88;;
76667;SDS011;65585;51.166;16.922;2023-03-31T03:48:27;12.10;;;7.00;;
76667;SDS011;65585;51.166;16.922;2023-03-31T03:50:53;10.65;;;6.57;;
76667;SDS011;65585;51.166;16.922;2023-03-31T03:53:20;13.60;;;7.32;;
76667;SDS011;65585;51.166;16.922;2023-03-31T03:55:46;11.93;;;7.43;;
76667;SDS011;65585;51.166;16.922;2023-03-31T03:58:15;12.55;;;7.47;;
76667;SDS011;65585;51.166;16.922;2023-03-31T04:03:09;16.33;;;7.63;;
76667;SDS011;65585;51.166;16.922;2023-03-31T04:05:36;15.93;;;7.63;;
76667;SDS011;65585;51.166;16.922;2023-03-31T04:08:02;13.27;;;7.32;;
76667;SDS011;65585;51.166;16.922;2023-03-31T04:10:30;15.10;;;8.18;;
76667;SDS011;65585;51.166;16.922;2023-03-31T04:12:56;12.50;;;7.35;;
76667;SDS011;65585;51.166;16.922;2023-03-31T04:15:23;12.52;;;6.57;;
76667;SDS011;65585;51.166;16.922;2023-03-31T04:17:49;13.15;;;6.75;;
76667;SDS011;65585;51.166;16.922;2023-03-31T04:20:19;11.82;;;7.47;;
76667;SDS011;65585;51.166;16.922;2023-03-31T04:22:46;12.70;;;7.47;;
76667;SDS011;65585;51.166;16.922;2023-03-31T04:25:16;9.80;;;6.15;;
76667;SDS011;65585;51.166;16.922;2023-03-31T04:30:12;13.70;;;7.95;;
76667;SDS011;65585;51.166;16.922;2023-03-31T04:32:54;10.65;;;6.15;;
76667;SDS011;65585;51.166;16.922;2023-03-31T04:35:21;12.40;;;7.25;;
76667;SDS011;65585;51.166;16.922;2023-03-31T04:37:48;10.73;;;7.25;;
76667;SDS011;65585;51.166;16.922;2023-03-31T04:40:17;11.43;;;7.07;;
76667;SDS011;65585;51.166;16.922;2023-03-31T04:42:43;11.80;;;7.03;;
76667;SDS011;65585;51.166;16.922;2023-03-31T04:45:10;18.38;;;7.78;;
76667;SDS011;65585;51.166;16.922;2023-03-31T04:47:36;9.52;;;6.07;;
76667;SDS011;65585;51.166;16.922;2023-03-31T04:50:03;11.68;;;7.47;;
76667;SDS011;65585;51.166;16.922;2023-03-31T04:52:29;15.68;;;8.32;;
76667;SDS011;65585;51.166;16.922;2023-03-31T04:54:56;16.23;;;8.52;;
76667;SDS011;65585;51.166;16.922;2023-03-31T04:57:22;13.98;;;8.50;;
76667;SDS011;65585;51.166;16.922;2023-03-31T04:59:48;14.27;;;8.63;;
76667;SDS011;65585;51.166;16.922;2023-03-31T05:02:14;17.15;;;8.02;;
76667;SDS011;65585;51.166;16.922;2023-03-31T05:04:48;15.02;;;8.40;;
76667;SDS011;65585;51.166;16.922;2023-03-31T05:07:15;15.07;;;7.85;;
76667;SDS011;65585;51.166;16.922;2023-03-31T05:09:42;16.73;;;8.65;;
76667;SDS011;65585;51.166;16.922;2023-03-31T05:12:08;16.73;;;9.48;;
76667;SDS011;65585;51.166;16.922;2023-03-31T05:14:35;16.00;;;9.45;;
76667;SDS011;65585;51.166;16.922;2023-03-31T05:17:01;21.15;;;9.88;;
76667;SDS011;65585;51.166;16.922;2023-03-31T05:19:27;25.85;;;10.95;;
76667;SDS011;65585;51.166;16.922;2023-03-31T05:21:53;19.63;;;10.05;;
76667;SDS011;65585;51.166;16.922;2023-03-31T05:24:19;27.58;;;11.40;;
76667;SDS011;65585;51.166;16.922;2023-03-31T05:26:45;26.88;;;11.57;;
76667;SDS011;65585;51.166;16.922;2023-03-31T05:29:17;22.98;;;10.70;;
76667;SDS011;65585;51.166;16.922;2023-03-31T05:31:44;26.48;;;11.15;;
76667;SDS011;65585;51.166;16.922;2023-03-31T05:34:10;23.55;;;12.85;;
76667;SDS011;65585;51.166;16.922;2023-03-31T05:36:36;25.98;;;12.05;;
76667;SDS011;65585;51.166;16.922;2023-03-31T05:39:06;31.35;;;14.10;;
76667;SDS011;65585;51.166;16.922;2023-03-31T05:41:33;28.48;;;13.20;;
76667;SDS011;65585;51.166;16.922;2023-03-31T05:43:59;22.88;;;12.88;;
76667;SDS011;65585;51.166;16.922;2023-03-31T05:46:27;25.55;;;12.50;;
76667;SDS011;65585;51.166;16.922;2023-03-31T05:48:53;18.85;;;11.80;;
76667;SDS011;65585;51.166;16.922;2023-03-31T05:51:21;16.88;;;9.85;;
76667;SDS011;65585;51.166;16.922;2023-03-31T05:53:54;16.08;;;8.77;;
76667;SDS011;65585;51.166;16.922;2023-03-31T05:56:20;13.20;;;8.50;;
76667;SDS011;65585;51.166;16.922;2023-03-31T05:58:47;10.45;;;7.50;;
76667;SDS011;65585;51.166;16.922;2023-03-31T06:01:14;8.95;;;6.53;;
76667;SDS011;65585;51.166;16.922;2023-03-31T06:03:46;10.18;;;6.38;;
76667;SDS011;65585;51.166;16.922;2023-03-31T06:06:12;9.82;;;5.97;;
76667;SDS011;65585;51.166;16.922;2023-03-31T06:08:39;9.38;;;6.65;;
76667;SDS011;65585;51.166;16.922;2023-03-31T06:11:10;8.70;;;5.80;;
76667;SDS011;65585;51.166;16.922;2023-03-31T06:13:38;8.73;;;6.57;;
76667;SDS011;65585;51.166;16.922;2023-03-31T06:16:05;9.85;;;6.25;;
76667;SDS011;65585;51.166;16.922;2023-03-31T06:18:33;10.02;;;5.85;;
76667;SDS011;65585;51.166;16.922;2023-03-31T06:20:59;9.25;;;6.28;;
76667;SDS011;65585;51.166;16.922;2023-03-31T06:23:26;10.05;;;6.68;;
76667;SDS011;65585;51.166;16.922;2023-03-31T06:25:52;9.45;;;6.35;;
76667;SDS011;65585;51.166;16.922;2023-03-31T06:28:19;11.10;;;6.65;;
76667;SDS011;65585;51.166;16.922;2023-03-31T06:30:45;9.77;;;6.70;;
76667;SDS011;65585;51.166;16.922;2023-03-31T06:33:12;10.05;;;5.95;;
76667;SDS011;65585;51.166;16.922;2023-03-31T06:35:38;11.10;;;5.88;;
76667;SDS011;65585;51.166;16.922;2023-03-31T06:40:32;10.10;;;5.90;;
76667;SDS011;65585;51.166;16.922;2023-03-31T06:42:59;10.95;;;5.60;;
76667;SDS011;65585;51.166;16.922;2023-03-31T06:45:25;10.57;;;6.22;;
76667;SDS011;65585;51.166;16.922;2023-03-31T06:47:51;11.38;;;5.78;;
76667;SDS011;65585;51.166;16.922;2023-03-31T06:50:17;8.13;;;5.10;;
76667;SDS011;65585;51.166;16.922;2023-03-31T06:52:43;9.95;;;5.55;;
76667;SDS011;65585;51.166;16.922;2023-03-31T06:55:09;7.88;;;5.70;;
76667;SDS011;65585;51.166;16.922;2023-03-31T06:57:37;9.73;;;5.55;;
76667;SDS011;65585;51.166;16.922;2023-03-31T07:00:04;6.32;;;4.78;;
76667;SDS011;65585;51.166;16.922;2023-03-31T07:02:32;10.95;;;5.95;;
76667;SDS011;65585;51.166;16.922;2023-03-31T07:04:58;10.02;;;5.07;;
76667;SDS011;65585;51.166;16.922;2023-03-31T07:07:24;7.75;;;5.40;;
76667;SDS011;65585;51.166;16.922;2023-03-31T07:09:50;8.25;;;5.40;;
76667;SDS011;65585;51.166;16.922;2023-03-31T07:12:16;9.52;;;5.50;;
76667;SDS011;65585;51.166;16.922;2023-03-31T07:14:42;11.68;;;5.60;;
76667;SDS011;65585;51.166;16.922;2023-03-31T07:17:08;9.25;;;5.47;;
76667;SDS011;65585;51.166;16.922;2023-03-31T07:19:35;7.50;;;5.00;;
76667;SDS011;65585;51.166;16.922;2023-03-31T07:22:02;6.90;;;5.03;;
76667;SDS011;65585;51.166;16.922;2023-03-31T07:24:30;7.38;;;5.03;;
76667;SDS011;65585;51.166;16.922;2023-03-31T07:26:57;8.68;;;5.30;;
76667;SDS011;65585;51.166;16.922;2023-03-31T07:29:23;7.75;;;5.72;;
76667;SDS011;65585;51.166;16.922;2023-03-31T07:31:49;10.73;;;5.50;;
76667;SDS011;65585;51.166;16.922;2023-03-31T07:34:15;10.20;;;5.80;;
76667;SDS011;65585;51.166;16.922;2023-03-31T07:36:42;9.40;;;5.82;;
76667;SDS011;65585;51.166;16.922;2023-03-31T07:39:07;13.27;;;5.85;;
76667;SDS011;65585;51.166;16.922;2023-03-31T07:41:34;10.27;;;5.43;;
76667;SDS011;65585;51.166;16.922;2023-03-31T07:44:01;8.35;;;5.80;;
76667;SDS011;65585;51.166;16.922;2023-03-31T07:46:27;10.02;;;6.30;;
76667;SDS011;65585;51.166;16.922;2023-03-31T07:48:55;8.13;;;4.95;;
76667;SDS011;65585;51.166;16.922;2023-03-31T07:51:24;9.15;;;5.90;;
76667;SDS011;65585;51.166;16.922;2023-03-31T07:53:51;11.98;;;6.30;;
76667;SDS011;65585;51.166;16.922;2023-03-31T07:56:22;10.20;;;6.53;;
76667;SDS011;65585;51.166;16.922;2023-03-31T07:58:49;12.55;;;6.47;;
76667;SDS011;65585;51.166;16.922;2023-03-31T08:01:19;10.88;;;6.45;;
76667;SDS011;65585;51.166;16.922;2023-03-31T08:03:46;9.13;;;6.13;;
76667;SDS011;65585;51.166;16.922;2023-03-31T08:06:20;8.35;;;5.88;;
76667;SDS011;65585;51.166;16.922;2023-03-31T08:08:48;9.45;;;5.85;;
76667;SDS011;65585;51.166;16.922;2023-03-31T08:11:15;9.02;;;5.55;;
76667;SDS011;65585;51.166;16.922;2023-03-31T08:13:43;9.73;;;6.25;;
76667;SDS011;65585;51.166;16.922;2023-03-31T08:16:09;9.20;;;6.78;;
76667;SDS011;65585;51.166;16.922;2023-03-31T08:18:35;11.05;;;6.38;;
76667;SDS011;65585;51.166;16.922;2023-03-31T08:21:02;8.25;;;5.22;;
76667;SDS011;65585;51.166;16.922;2023-03-31T08:23:28;8.52;;;5.78;;
76667;SDS011;65585;51.166;16.922;2023-03-31T08:26:05;9.75;;;5.45;;
76667;SDS011;65585;51.166;16.922;2023-03-31T08:28:35;11.18;;;5.97;;
76667;SDS011;65585;51.166;16.922;2023-03-31T08:31:05;9.73;;;6.18;;
76667;SDS011;65585;51.166;16.922;2023-03-31T08:33:35;9.23;;;6.00;;
76667;SDS011;65585;51.166;16.922;2023-03-31T08:36:03;10.70;;;6.88;;
76667;SDS011;65585;51.166;16.922;2023-03-31T08:38:38;11.45;;;6.40;;
76667;SDS011;65585;51.166;16.922;2023-03-31T08:44:13;9.10;;;5.90;;
76667;SDS011;65585;51.166;16.922;2023-03-31T08:46:42;8.25;;;5.97;;
76667;SDS011;65585;51.166;16.922;2023-03-31T08:49:11;10.05;;;5.97;;
76667;SDS011;65585;51.166;16.922;2023-03-31T08:51:45;7.78;;;5.45;;
76667;SDS011;65585;51.166;16.922;2023-03-31T08:54:16;8.60;;;5.30;;
76667;SDS011;65585;51.166;16.922;2023-03-31T08:56:47;7.03;;;4.80;;
76667;SDS011;65585;51.166;16.922;2023-03-31T08:59:35;9.93;;;5.20;;
76667;SDS011;65585;51.166;16.922;2023-03-31T09:13:20;6.93;;;4.75;;
76667;SDS011;65585;51.166;16.922;2023-03-31T09:16:09;7.25;;;4.60;;
76667;SDS011;65585;51.166;16.922;2023-03-31T09:18:40;7.45;;;4.70;;
76667;SDS011;65585;51.166;16.922;2023-03-31T09:21:22;6.53;;;4.35;;
76667;SDS011;65585;51.166;16.922;2023-03-31T09:24:04;7.68;;;4.43;;
76667;SDS011;65585;51.166;16.922;2023-03-31T09:31:54;6.50;;;4.13;;
76667;SDS011;65585;51.166;16.922;2023-03-31T09:34:27;6.60;;;4.03;;
76667;SDS011;65585;51.166;16.922;2023-03-31T09:36:55;8.50;;;4.18;;
76667;SDS011;65585;51.166;16.922;2023-03-31T09:39:22;5.05;;;3.40;;
76667;SDS011;65585;51.166;16.922;2023-03-31T09:41:48;7.38;;;3.90;;
76667;SDS011;65585;51.166;16.922;2023-03-31T09:47:05;6.38;;;3.58;;
76667;SDS011;65585;51.166;16.922;2023-03-31T09:49:35;9.85;;;4.20;;
76667;SDS011;65585;51.166;16.922;2023-03-31T09:52:05;7.50;;;4.07;;
76667;SDS011;65585;51.166;16.922;2023-03-31T09:54:43;6.85;;;3.70;;
76667;SDS011;65585;51.166;16.922;2023-03-31T09:57:21;8.38;;;3.92;;
76667;SDS011;65585;51.166;16.922;2023-03-31T09:59:51;7.80;;;4.07;;
76667;SDS011;65585;51.166;16.922;2023-03-31T10:04:50;9.90;;;4.32;;
76667;SDS011;65585;51.166;16.922;2023-03-31T10:07:20;5.22;;;4.00;;
76667;SDS011;65585;51.166;16.922;2023-03-31T10:09:48;6.78;;;4.35;;
76667;SDS011;65585;51.166;16.922;2023-03-31T10:12:21;6.57;;;4.78;;
76667;SDS011;65585;51.166;16.922;2023-03-31T10:14:51;8.38;;;4.55;;
76667;SDS011;65585;51.166;16.922;2023-03-31T10:17:22;8.13;;;5.93;;
76667;SDS011;65585;51.166;16.922;2023-03-31T10:19:50;10.25;;;5.20;;
76667;SDS011;65585;51.166;16.922;2023-03-31T10:24:48;9.80;;;4.72;;
76667;SDS011;65585;51.166;16.922;2023-03-31T10:27:20;5.10;;;4.10;;
76667;SDS011;65585;51.166;16.922;2023-03-31T10:29:57;7.18;;;5.00;;
76667;SDS011;65585;51.166;16.922;2023-03-31T10:32:30;6.10;;;4.22;;
76667;SDS011;65585;51.166;16.922;2023-03-31T10:35:02;7.32;;;5.20;;
76667;SDS011;65585;51.166;16.922;2023-03-31T10:37:55;9.90;;;5.18;;
76667;SDS011;65585;51.166;16.922;2023-03-31T10:40:24;8.18;;;4.40;;
76667;SDS011;65585;51.166;16.922;2023-03-31T10:43:13;5.68;;;4.35;;
76667;SDS011;65585;51.166;16.922;2023-03-31T10:48:33;7.22;;;3.95;;
76667;SDS011;65585;51.166;16.922;2023-03-31T10:51:10;6.50;;;3.80;;
76667;SDS011;65585;51.166;16.922;2023-03-31T10:53:45;4.43;;;3.40;;
76667;SDS011;65585;51.166;16.922;2023-03-31T10:59:31;5.88;;;3.50;;
76667;SDS011;65585;51.166;16.922;2023-03-31T11:02:40;6.88;;;3.50;;
76667;SDS011;65585;51.166;16.922;2023-03-31T11:08:09;5.68;;;3.20;;
76667;SDS011;65585;51.166;16.922;2023-03-31T11:16:47;6.30;;;3.40;;
76667;SDS011;65585;51.166;16.922;2023-03-31T11:19:33;7.47;;;3.28;;
76667;SDS011;65585;51.166;16.922;2023-03-31T11:35:28;6.97;;;3.72;;
76667;SDS011;65585;51.166;16.922;2023-03-31T11:53:38;7.38;;;3.50;;
76667;SDS011;65585;51.166;16.922;2023-03-31T11:56:06;6.80;;;4.00;;
76667;SDS011;65585;51.166;16.922;2023-03-31T11:58:36;5.55;;;4.05;;
76667;SDS011;65585;51.166;16.922;2023-03-31T12:04:06;7.07;;;4.68;;
76667;SDS011;65585;51.166;16.922;2023-03-31T12:06:40;6.63;;;3.90;;
76667;SDS011;65585;51.166;16.922;2023-03-31T12:17:34;6.53;;;4.10;;
76667;SDS011;65585;51.166;16.922;2023-03-31T12:20:03;5.97;;;4.00;;
76667;SDS011;65585;51.166;16.922;2023-03-31T12:22:36;6.72;;;4.13;;
76667;SDS011;65585;51.166;16.922;2023-03-31T12:25:10;8.10;;;4.60;;
76667;SDS011;65585;51.166;16.922;2023-03-31T12:30:16;5.80;;;3.72;;
76667;SDS011;65585;51.166;16.922;2023-03-31T12:32:46;5.65;;;3.20;;
76667;SDS011;65585;51.166;16.922;2023-03-31T13:08:49;6.15;;;3.55;;
76667;SDS011;65585;51.166;16.922;2023-03-31T13:11:21;7.15;;;3.72;;
76667;SDS011;65585;51.166;16.922;2023-03-31T13:13:52;4.32;;;3.08;;
76667;SDS011;65585;51.166;16.922;2023-03-31T13:16:24;5.72;;;3.40;;
76667;SDS011;65585;51.166;16.922;2023-03-31T13:18:51;6.50;;;3.28;;
76667;SDS011;65585;51.166;16.922;2023-03-31T13:36:58;6.72;;;3.60;;
76667;SDS011;65585;51.166;16.922;2023-03-31T13:50:53;9.20;;;5.20;;
76667;SDS011;65585;51.166;16.922;2023-03-31T13:54:21;8.75;;;4.30;;
76667;SDS011;65585;51.166;16.922;2023-03-31T14:09:59;8.35;;;5.50;;
76667;SDS011;65585;51.166;16.922;2023-03-31T14:12:30;7.65;;;5.50;;
76667;SDS011;65585;51.166;16.922;2023-03-31T14:14:58;8.65;;;5.43;;
76667;SDS011;65585;51.166;16.922;2023-03-31T14:17:38;10.35;;;5.63;;
76667;SDS011;65585;51.166;16.922;2023-03-31T14:28:35;10.05;;;5.53;;
76667;SDS011;65585;51.166;16.922;2023-03-31T14:31:27;9.77;;;5.97;;
76667;SDS011;65585;51.166;16.922;2023-03-31T14:37:53;9.75;;;5.18;;
76667;SDS011;65585;51.166;16.922;2023-03-31T14:48:23;10.65;;;6.47;;
76667;SDS011;65585;51.166;16.922;2023-03-31T14:51:32;15.38;;;6.68;;
76667;SDS011;65585;51.166;16.922;2023-03-31T14:57:39;11.05;;;6.45;;
76667;SDS011;65585;51.166;16.922;2023-03-31T15:00:24;13.20;;;7.30;;
76667;SDS011;65585;51.166;16.922;2023-03-31T15:06:26;18.50;;;10.30;;
76667;SDS011;65585;51.166;16.922;2023-03-31T15:08:59;18.55;;;11.23;;
76667;SDS011;65585;51.166;16.922;2023-03-31T15:11:27;14.45;;;8.60;;
76667;SDS011;65585;51.166;16.922;2023-03-31T15:13:55;16.83;;;9.93;;
76667;SDS011;65585;51.166;16.922;2023-03-31T15:16:39;11.98;;;8.57;;
76667;SDS011;65585;51.166;16.922;2023-03-31T15:19:14;10.52;;;7.35;;
76667;SDS011;65585;51.166;16.922;2023-03-31T15:21:41;11.80;;;6.88;;
76667;SDS011;65585;51.166;16.922;2023-03-31T15:24:10;9.70;;;6.30;;
76667;SDS011;65585;51.166;16.922;2023-03-31T15:26:38;10.32;;;6.10;;
76667;SDS011;65585;51.166;16.922;2023-03-31T15:29:11;8.85;;;6.00;;
76667;SDS011;65585;51.166;16.922;2023-03-31T15:42:36;4.80;;;3.60;;
76667;SDS011;65585;51.166;16.922;2023-03-31T15:53:18;9.30;;;4.53;;
76667;SDS011;65585;51.166;16.922;2023-03-31T15:56:30;9.20;;;4.63;;
76667;SDS011;65585;51.166;16.922;2023-03-31T15:59:20;8.00;;;5.60;;
76667;SDS011;65585;51.166;16.922;2023-03-31T16:01:53;7.82;;;6.72;;
76667;SDS011;65585;51.166;16.922;2023-03-31T16:05:00;8.55;;;6.35;;
76667;SDS011;65585;51.166;16.922;2023-03-31T16:11:43;6.60;;;5.10;;
76667;SDS011;65585;51.166;16.922;2023-03-31T16:14:52;8.48;;;4.97;;
76667;SDS011;65585;51.166;16.922;2023-03-31T16:23:11;6.65;;;4.43;;
76667;SDS011;65585;51.166;16.922;2023-03-31T16:25:40;6.97;;;5.63;;
76667;SDS011;65585;51.166;16.922;2023-03-31T16:28:07;8.30;;;5.60;;
76667;SDS011;65585;51.166;16.922;2023-03-31T16:30:40;7.10;;;5.32;;
76667;SDS011;65585;51.166;16.922;2023-03-31T16:33:09;7.45;;;5.68;;
76667;SDS011;65585;51.166;16.922;2023-03-31T16:35:38;8.50;;;5.22;;
76667;SDS011;65585;51.166;16.922;2023-03-31T16:38:07;8.10;;;4.88;;
76667;SDS011;65585;51.166;16.922;2023-03-31T16:48:32;7.45;;;5.70;;
76667;SDS011;65585;51.166;16.922;2023-03-31T16:54:01;10.23;;;5.88;;
76667;SDS011;65585;51.166;16.922;2023-03-31T16:56:28;8.10;;;5.53;;
76667;SDS011;65585;51.166;16.922;2023-03-31T16:58:54;9.00;;;6.50;;
76667;SDS011;65585;51.166;16.922;2023-03-31T17:01:21;10.88;;;6.18;;
76667;SDS011;65585;51.166;16.922;2023-03-31T17:03:47;9.48;;;6.50;;
76667;SDS011;65585;51.166;16.922;2023-03-31T17:06:14;7.53;;;5.90;;
76667;SDS011;65585;51.166;16.922;2023-03-31T17:18:52;9.13;;;7.13;;
76667;SDS011;65585;51.166;16.922;2023-03-31T17:21:19;8.32;;;6.90;;
76667;SDS011;65585;51.166;16.922;2023-03-31T17:23:46;10.80;;;7.93;;
76667;SDS011;65585;51.166;16.922;2023-03-31T17:26:12;9.45;;;7.80;;
76667;SDS011;65585;51.166;16.922;2023-03-31T17:28:39;14.68;;;9.27;;
76667;SDS011;65585;51.166;16.922;2023-03-31T17:31:18;19.05;;;13.25;;
76667;SDS011;65585;51.166;16.922;2023-03-31T17:36:12;85.18;;;37.88;;
76667;SDS011;65585;51.166;16.922;2023-03-31T17:38:39;104.43;;;44.08;;
76667;SDS011;65585;51.166;16.922;2023-03-31T17:48:52;58.58;;;31.48;;
76667;SDS011;65585;51.166;16.922;2023-03-31T17:51:21;46.05;;;27.73;;
76667;SDS011;65585;51.166;16.922;2023-03-31T17:53:47;42.33;;;26.17;;
76667;SDS011;65585;51.166;16.922;2023-03-31T17:56:14;40.97;;;23.50;;
76667;SDS011;65585;51.166;16.922;2023-03-31T17:58:41;32.55;;;19.17;;
76667;SDS011;65585;51.166;16.922;2023-03-31T18:01:09;23.65;;;14.65;;
76667;SDS011;65585;51.166;16.922;2023-03-31T18:03:36;18.38;;;12.65;;
76667;SDS011;65585;51.166;16.922;2023-03-31T18:06:06;14.32;;;10.57;;
76667;SDS011;65585;51.166;16.922;2023-03-31T18:08:35;14.85;;;10.32;;
76667;SDS011;65585;51.166;16.922;2023-03-31T18:11:03;12.15;;;9.00;;
76667;SDS011;65585;51.166;16.922;2023-03-31T18:21:15;11.98;;;7.20;;
76667;SDS011;65585;51.166;16.922;2023-03-31T18:23:42;10.27;;;7.43;;
76667;SDS011;65585;51.166;16.922;2023-03-31T18:26:08;15.32;;;9.20;;
76667;SDS011;65585;51.166;16.922;2023-03-31T18:28:36;19.10;;;9.25;;
76667;SDS011;65585;51.166;16.922;2023-03-31T18:31:05;20.02;;;10.77;;
76667;SDS011;65585;51.166;16.922;2023-03-31T18:33:33;15.48;;;10.32;;
76667;SDS011;65585;51.166;16.922;2023-03-31T18:35:59;14.32;;;9.70;;
76667;SDS011;65585;51.166;16.922;2023-03-31T18:38:26;14.20;;;9.07;;
76667;SDS011;65585;51.166;16.922;2023-03-31T18:40:53;13.30;;;9.43;;
76667;SDS011;65585;51.166;16.922;2023-03-31T18:43:20;13.52;;;10.57;;
76667;SDS011;65585;51.166;16.922;2023-03-31T18:56:07;12.52;;;7.80;;
76667;SDS011;65585;51.166;16.922;2023-03-31T18:58:34;11.80;;;7.45;;
76667;SDS011;65585;51.166;16.922;2023-03-31T19:01:00;12.38;;;8.32;;
76667;SDS011;65585;51.166;16.922;2023-03-31T19:03:27;11.70;;;7.32;;
76667;SDS011;65585;51.166;16.922;2023-03-31T19:06:03;15.57;;;8.90;;
76667;SDS011;65585;51.166;16.922;2023-03-31T19:08:31;16.50;;;9.00;;
76667;SDS011;65585;51.166;16.922;2023-03-31T19:11:10;21.45;;;12.52;;
76667;SDS011;65585;51.166;16.922;2023-03-31T19:29:33;13.73;;;8.35;;
76667;SDS011;65585;51.166;16.922;2023-03-31T19:32:38;9.68;;;7.25;;
76667;SDS011;65585;51.166;16.922;2023-03-31T19:35:04;13.30;;;9.02;;
76667;SDS011;65585;51.166;16.922;2023-03-31T19:37:31;15.27;;;9.60;;
76667;SDS011;65585;51.166;16.922;2023-03-31T19:39:57;13.55;;;10.82;;
76667;SDS011;65585;51.166;16.922;2023-03-31T19:54:02;17.60;;;11.05;;
76667;SDS011;65585;51.166;16.922;2023-03-31T19:56:29;13.43;;;8.70;;
76667;SDS011;65585;51.166;16.922;2023-03-31T19:58:56;14.77;;;9.18;;
76667;SDS011;65585;51.166;16.922;2023-03-31T20:01:24;12.73;;;7.30;;
76667;SDS011;65585;51.166;16.922;2023-03-31T20:03:51;10.38;;;7.18;;
76667;SDS011;65585;51.166;16.922;2023-03-31T20:06:19;13.98;;;8.73;;
76667;SDS011;65585;51.166;16.922;2023-03-31T20:08:50;15.20;;;9.30;;
76667;SDS011;65585;51.166;16.922;2023-03-31T20:21:32;15.82;;;8.70;;
76667;SDS011;65585;51.166;16.922;2023-03-31T20:24:00;10.25;;;6.65;;
76667;SDS011;65585;51.166;16.922;2023-03-31T20:26:28;11.65;;;6.50;;
76667;SDS011;65585;51.166;16.922;2023-03-31T20:31:22;11.80;;;6.55;;
76667;SDS011;65585;51.166;16.922;2023-03-31T20:33:50;9.75;;;6.63;;
76667;SDS011;65585;51.166;16.922;2023-03-31T20:46:37;13.88;;;8.52;;
76667;SDS011;65585;51.166;16.922;2023-03-31T20:49:04;15.75;;;7.82;;
76667;SDS011;65585;51.166;16.922;2023-03-31T20:51:51;9.43;;;5.70;;
76667;SDS011;65585;51.166;16.922;2023-03-31T20:54:21;7.35;;;5.15;;